Air Navigation Services of Czech Republic  
Last data update:  07.07.2020 21:53:26 UTC česká verze
   METEO Page displayed:  07.07.2020 21:55:07 UTC  
help
METAR EDDB 072150Z 25007KT 9999 -RA NSC 14/11 Q1016 NOSIG=
METAR EDDC 072150Z 22006KT CAVOK 16/06 Q1016=
METAR EDDE 072150Z 28003KT 250V310 9999 -RADZ FEW030 14/09 Q1018=
METAR EDDF 072150Z 22003KT CAVOK 15/08 Q1017 NOSIG=
METAR EDDM 072150Z VRB01KT CAVOK 11/09 Q1019 NOSIG=
METAR EDDN 072150Z 10006KT CAVOK 13/07 Q1018=
METAR EDDP 072150Z 31006KT 9999 -RA NSC 14/11 Q1017 NOSIG=
METAR EDDT 072150Z 26009KT 9999 -RA NSC 14/11 Q1016=
METAR EDQM NIL
METAR EPBY 072130Z 20006KT CAVOK 14/07 Q1014=
METAR EPGD 072130Z 20003KT 140V230 CAVOK 11/08 Q1012=
METAR EPKK 072130Z 21002KT CAVOK 12/08 Q1018=
METAR EPKT 072130Z VRB01KT CAVOK 12/07 Q1017=
METAR EPLL 072130Z VRB01KT CAVOK 11/07 Q1016=
METAR EPPO 072130Z 21004KT CAVOK 14/06 Q1015=
METAR EPRZ 072130Z 26009KT CAVOK 10/08 Q1017=
METAR EPWA 072130Z 25004KT CAVOK 12/09 Q1016 NOSIG=
METAR EPWR 072130Z 22007KT CAVOK 13/08 Q1016=
METAR LHBP 072130Z 33005KT CAVOK 14/08 Q1018 NOSIG=
METAR LHSM 072115Z AUTO 00000KT CAVOK 12/10 Q1019=
METAR LKBC 072130Z AUTO 00000KT 9999 BKN072 12/09 Q1018=
METAR LKCV 072130Z 14003KT CAVOK 13/09 Q1017 NOSIG RMK BLU BLU=
METAR LKKB 072130Z 24004KT CAVOK 16/07 Q1017 RMK BLU=
METAR LKKU NIL
METAR LKKV 072100Z VRB01KT CAVOK 10/06 Q1018 RMK REG QNH 1015=
METAR LKLN 072130Z AUTO 21001KT 9999 OVC075 13/08 Q1018=
METAR LKMT 072130Z 23005KT CAVOK 11/10 Q1018 NOSIG RMK REG QNH 1015=
METAR LKNA 072130Z VRB01KT CAVOK 15/06 Q1019 RMK BLU=
METAR LKPD 072130Z 19004KT CAVOK 11/09 Q1017 RMK BLU BLU=
METAR LKPJ 072130Z AUTO VRB01KT CAVOK 10/08 Q1018=
METAR LKPR 072130Z 20005KT CAVOK 14/08 Q1018 NOSIG RMK REG QNH 1015=
METAR LKTB 072130Z 00000KT CAVOK 13/09 Q1018 NOSIG RMK REG QNH 1015=
METAR LKVO NIL
METAR LOWI 072120Z AUTO VRB02KT 9999 NCD 14/09 Q1019=
METAR LOWL 072120Z AUTO VRB01KT 9999 NCD 14/09 Q1019=
METAR LOWS 072120Z AUTO 17005KT 9999 NCD 13/10 Q1019=
METAR LOWW 072120Z 17004KT CAVOK 14/08 Q1019 NOSIG=
METAR LZIB 072130Z 36004KT CAVOK 14/08 Q1019=
METAR LZKZ 072130Z VRB02KT CAVOK 11/09 Q1018=
METAR LZMC 072100Z 13004KT CAVOK 12/08 Q1019=
METAR LZPP 072130Z AUTO 34003KT 9999 NCD 11/09 Q1019=
METAR LZSL 072130Z 00000KT CAVOK 11/08 Q1019=
METAR LZTT 072130Z 25007KT 9999 FEW053 08/05 Q1019=
METAR LZZI 072130Z 13003KT CAVOK 11/08 Q1019=